createdAt,value
2023-05-23T00:01:48.164Z,100590.75
2023-05-23T00:04:20.261Z,100589.97
2023-05-23T00:06:51.696Z,100587.34
2023-05-23T00:09:23.144Z,100588.34
2023-05-23T00:11:54.527Z,100582.25
2023-05-23T00:14:26.951Z,100584.88
2023-05-23T00:16:59.523Z,100574.00
2023-05-23T00:19:31.004Z,100578.28
2023-05-23T00:22:03.286Z,100560.69
2023-05-23T00:24:34.637Z,100573.66
2023-05-23T00:27:05.934Z,100573.59
2023-05-23T00:29:37.313Z,100569.03
2023-05-23T00:32:08.623Z,100568.38
2023-05-23T00:34:39.967Z,100568.94
2023-05-23T00:37:11.719Z,100574.69
2023-05-23T00:39:43.058Z,100570.69
2023-05-23T00:42:14.384Z,100575.38
2023-05-23T00:44:45.856Z,100577.41
2023-05-23T00:47:17.811Z,100558.53
2023-05-23T00:49:49.177Z,100570.84
2023-05-23T00:52:20.690Z,100583.50
2023-05-23T00:54:52.093Z,100567.69
2023-05-23T00:57:23.418Z,100583.09
2023-05-23T00:59:55.016Z,100577.13
2023-05-23T01:02:27.795Z,100579.25
2023-05-23T01:04:59.800Z,100555.94
2023-05-23T01:07:31.121Z,100580.75
2023-05-23T01:10:04.591Z,100580.75
2023-05-23T01:12:54.341Z,100574.00
2023-05-23T01:15:36.063Z,100576.91
2023-05-23T01:18:14.357Z,100567.16
2023-05-23T01:20:59.633Z,100568.09
2023-05-23T01:24:03.314Z,100572.75
2023-05-23T01:27:01.084Z,100571.94
2023-05-23T01:29:36.574Z,100562.13
2023-05-23T01:32:11.607Z,100575.97
2023-05-23T01:34:43.811Z,100572.69
2023-05-23T01:37:18.540Z,100558.88
2023-05-23T01:39:50.066Z,100570.31
2023-05-23T01:42:21.533Z,100577.59
2023-05-23T01:44:52.975Z,100566.63
2023-05-23T01:47:24.531Z,100582.50
2023-05-23T01:49:57.644Z,100577.94
2023-05-23T01:52:29.066Z,100583.41
2023-05-23T01:55:01.817Z,100562.50
2023-05-23T01:57:34.303Z,100579.94
2023-05-23T02:00:06.854Z,100577.50
2023-05-23T02:02:38.442Z,100580.22
2023-05-23T02:05:11.046Z,100582.84
2023-05-23T02:07:42.396Z,100580.97
2023-05-23T02:10:14.038Z,100568.53
2023-05-23T02:12:47.839Z,100579.13
2023-05-23T02:15:19.213Z,100567.69
2023-05-23T02:17:51.457Z,100580.00
2023-05-23T02:20:22.927Z,100562.50
2023-05-23T02:22:54.243Z,100588.19
2023-05-23T02:25:25.550Z,100594.59
2023-05-23T02:27:56.873Z,100583.19
2023-05-23T02:30:28.280Z,100584.72
2023-05-23T02:32:59.662Z,100577.69
2023-05-23T02:35:30.994Z,100586.28
2023-05-23T02:38:02.340Z,100595.97
2023-05-23T02:40:33.703Z,100568.16
2023-05-23T02:43:05.040Z,100581.34
2023-05-23T02:45:36.334Z,100582.16
2023-05-23T02:48:07.836Z,100586.09
2023-05-23T02:50:39.290Z,100595.00
2023-05-23T02:53:10.699Z,100568.03
2023-05-23T02:55:43.222Z,100595.28
2023-05-23T02:58:14.944Z,100567.41
2023-05-23T03:00:46.362Z,100587.56
2023-05-23T03:03:18.406Z,100586.78
2023-05-23T03:05:49.939Z,100568.63
2023-05-23T03:08:21.284Z,100577.28
2023-05-23T03:10:52.741Z,100595.75
2023-05-23T03:13:24.342Z,100577.22
2023-05-23T03:15:55.935Z,100584.81
2023-05-23T03:18:27.409Z,100590.22
2023-05-23T03:20:58.841Z,100590.41
2023-05-23T03:23:30.280Z,100590.47
2023-05-23T03:26:02.009Z,100597.84
2023-05-23T03:28:33.517Z,100597.94
2023-05-23T03:31:05.327Z,100575.19
2023-05-23T03:33:39.705Z,100595.28
2023-05-23T03:36:11.929Z,100570.94
2023-05-23T03:38:43.441Z,100570.19
2023-05-23T03:41:14.874Z,100571.16
2023-05-23T03:43:46.526Z,100585.06
2023-05-23T03:46:18.912Z,100564.34
2023-05-23T03:48:51.409Z,100574.81
2023-05-23T03:51:24.208Z,100587.88
2023-05-23T03:53:55.668Z,100587.94
2023-05-23T03:56:27.241Z,100573.84
2023-05-23T03:58:58.673Z,100587.94
2023-05-23T04:01:30.166Z,100583.41
2023-05-23T04:04:02.134Z,100581.72
2023-05-23T04:06:33.975Z,100572.38
2023-05-23T04:09:06.525Z,100583.75
2023-05-23T04:11:37.981Z,100576.03
2023-05-23T04:14:09.548Z,100571.50
2023-05-23T04:16:44.932Z,100595.16
2023-05-23T04:19:17.375Z,100593.22
2023-05-23T04:21:48.829Z,100569.75
2023-05-23T04:24:20.221Z,100605.78
2023-05-23T04:26:51.652Z,100596.78
2023-05-23T04:29:24.781Z,100580.97
2023-05-23T04:31:56.184Z,100591.31
2023-05-23T04:34:27.870Z,100587.59
2023-05-23T04:37:02.544Z,100561.34
2023-05-23T04:39:33.882Z,100577.91
2023-05-23T04:42:07.300Z,100584.81
2023-05-23T04:44:38.683Z,100586.44
2023-05-23T04:47:11.559Z,100584.59
2023-05-23T04:49:43.078Z,100580.06
2023-05-23T04:52:14.546Z,100563.22
2023-05-23T04:54:46.606Z,100564.03
2023-05-23T04:57:18.253Z,100584.81
2023-05-23T04:59:49.597Z,100554.09
2023-05-23T05:02:21.036Z,100586.34
2023-05-23T05:04:52.549Z,100589.88
2023-05-23T05:07:24.027Z,100582.72
2023-05-23T05:09:55.423Z,100587.19
2023-05-23T05:12:26.818Z,100593.53
2023-05-23T05:14:58.314Z,100585.69
2023-05-23T05:17:30.257Z,100596.56
2023-05-23T05:20:01.619Z,100597.56
2023-05-23T05:22:33.602Z,100591.22
2023-05-23T05:25:07.515Z,100586.69
2023-05-23T05:27:39.707Z,100570.19
2023-05-23T05:30:11.839Z,100592.16
2023-05-23T05:32:46.111Z,100582.38
2023-05-23T05:35:18.605Z,100583.31
2023-05-23T05:37:49.996Z,100588.44
2023-05-23T05:40:21.487Z,100565.13
2023-05-23T05:42:52.927Z,100589.59
2023-05-23T05:45:24.448Z,100588.72
2023-05-23T05:47:56.060Z,100596.63
2023-05-23T05:50:27.653Z,100583.53
2023-05-23T05:52:58.997Z,100597.50
2023-05-23T05:55:30.508Z,100606.91
2023-05-23T05:58:02.115Z,100594.53
2023-05-23T06:00:34.860Z,100612.31
2023-05-23T06:03:06.554Z,100606.97
2023-05-23T06:05:39.397Z,100613.25
2023-05-23T06:08:10.844Z,100614.91
2023-05-23T06:10:42.446Z,100630.22
2023-05-23T06:13:14.222Z,100612.00
2023-05-23T06:15:45.574Z,100630.59
2023-05-23T06:18:17.127Z,100638.75
2023-05-23T06:20:48.537Z,100639.84
2023-05-23T06:23:19.970Z,100628.63
2023-05-23T06:25:51.383Z,100635.47
2023-05-23T06:28:22.785Z,100635.38
2023-05-23T06:30:54.195Z,100635.38
2023-05-23T06:33:25.598Z,100637.75
2023-05-23T06:35:57.404Z,100628.88
2023-05-23T06:38:33.627Z,100635.13
2023-05-23T06:41:07.082Z,100645.88
2023-05-23T06:43:38.585Z,100640.72
2023-05-23T06:46:10.063Z,100636.41
2023-05-23T06:48:41.849Z,100646.28
2023-05-23T06:51:13.252Z,100657.06
2023-05-23T06:53:44.904Z,100646.50
2023-05-23T06:56:16.351Z,100659.91
2023-05-23T06:58:47.722Z,100667.16
2023-05-23T07:01:19.250Z,100670.97
2023-05-23T07:03:50.728Z,100666.72
2023-05-23T07:06:22.192Z,100679.66
2023-05-23T07:08:54.083Z,100680.81
2023-05-23T07:11:26.361Z,100681.91
2023-05-23T07:13:57.717Z,100678.34
2023-05-23T07:16:29.155Z,100648.84
2023-05-23T07:21:33.518Z,100690.88
2023-05-23T07:24:05.974Z,100679.44
2023-05-23T07:26:37.651Z,100690.75
2023-05-23T07:29:08.989Z,100693.34
2023-05-23T07:31:40.581Z,100701.25
2023-05-23T07:34:12.078Z,100691.44
2023-05-23T07:36:43.473Z,100709.34
2023-05-23T07:39:15.521Z,100697.91
2023-05-23T07:41:46.948Z,100694.69
2023-05-23T07:44:20.222Z,100702.53
2023-05-23T07:46:53.107Z,100705.25
2023-05-23T07:49:24.720Z,100707.34
2023-05-23T07:51:56.501Z,100710.38
2023-05-23T07:54:27.914Z,100717.09
2023-05-23T07:56:59.291Z,100715.50
2023-05-23T07:59:30.687Z,100734.00
2023-05-23T08:02:02.730Z,100716.19
2023-05-23T08:04:34.186Z,100717.31
2023-05-23T08:07:06.300Z,100741.78
2023-05-23T08:09:41.394Z,100730.78
2023-05-23T08:12:12.773Z,100744.97
2023-05-23T08:14:51.478Z,100747.84
2023-05-23T08:17:23.963Z,100736.63
2023-05-23T08:19:55.435Z,100761.53
2023-05-23T08:22:26.759Z,100762.72
2023-05-23T08:24:58.111Z,100763.78
2023-05-23T08:27:30.271Z,100772.72
2023-05-23T08:30:03.226Z,100769.28
2023-05-23T08:32:34.630Z,100772.38
2023-05-23T08:35:06.621Z,100785.25
2023-05-23T08:37:38.007Z,100785.56
2023-05-23T08:40:14.361Z,100785.97
2023-05-23T08:42:46.842Z,100798.66
2023-05-23T08:45:18.710Z,100780.34
2023-05-23T08:47:52.218Z,100800.03
2023-05-23T08:50:27.287Z,100811.00
2023-05-23T08:52:59.747Z,100807.66
2023-05-23T08:55:31.493Z,100818.56
2023-05-23T08:58:03.640Z,100822.19
2023-05-23T09:00:35.525Z,100829.31
2023-05-23T09:03:07.213Z,100832.00
2023-05-23T09:05:38.709Z,100831.16
2023-05-23T09:08:10.612Z,100853.47
2023-05-23T09:10:42.773Z,100846.56
2023-05-23T09:13:15.311Z,100840.66
2023-05-23T09:15:57.776Z,100850.53
2023-05-23T09:18:42.840Z,100870.00
2023-05-23T09:21:14.430Z,100851.78
2023-05-23T09:23:45.836Z,100881.81
2023-05-23T09:26:17.375Z,100886.22
2023-05-23T09:28:48.942Z,100885.34
2023-05-23T09:31:26.656Z,100888.84
2023-05-23T09:34:00.028Z,100894.22
2023-05-23T09:36:33.630Z,100898.63
2023-05-23T09:39:05.650Z,100902.28
2023-05-23T09:41:37.144Z,100903.44
2023-05-23T09:44:09.381Z,100891.25
2023-05-23T09:46:41.093Z,100899.59
2023-05-23T09:49:18.522Z,100918.91
2023-05-23T09:52:01.186Z,100917.16
2023-05-23T09:54:32.572Z,100925.09
2023-05-23T09:57:08.244Z,100912.63
2023-05-23T09:59:42.278Z,100921.41
2023-05-23T10:02:16.730Z,100903.94
2023-05-23T10:04:51.115Z,100903.38
2023-05-23T10:07:24.990Z,100933.31
2023-05-23T10:10:04.089Z,100911.53
2023-05-23T10:12:50.036Z,100946.81
2023-05-23T10:15:23.905Z,100924.16
2023-05-23T10:18:04.324Z,100987.19
2023-05-23T10:20:36.448Z,100944.88
2023-05-23T10:23:07.940Z,100962.50
2023-05-23T10:25:41.396Z,100971.19
2023-05-23T10:28:13.865Z,100968.44
2023-05-23T10:30:46.117Z,100947.97
2023-05-23T10:33:19.243Z,100934.44
2023-05-23T10:36:04.197Z,100971.16
2023-05-23T10:38:45.970Z,100962.19
2023-05-23T10:41:24.505Z,100972.75
2023-05-23T10:44:08.318Z,100987.75
2023-05-23T10:46:54.403Z,100988.59
2023-05-23T10:49:42.346Z,100976.25
2023-05-23T10:52:16.305Z,100991.97
2023-05-23T10:54:51.182Z,100999.97
2023-05-23T10:57:27.785Z,101009.66
2023-05-23T10:59:59.409Z,101009.56
2023-05-23T11:02:31.117Z,101018.31
2023-05-23T11:05:22.730Z,101015.53
2023-05-23T11:08:11.942Z,101022.41
2023-05-23T11:11:00.890Z,101031.63
2023-05-23T11:14:07.732Z,101016.97
2023-05-23T11:16:43.675Z,101031.50
2023-05-23T11:19:21.707Z,101030.84
2023-05-23T11:22:02.522Z,101037.69
2023-05-23T11:24:54.106Z,101023.00
2023-05-23T11:27:35.722Z,101038.13
2023-05-23T11:30:13.430Z,101037.06
2023-05-23T11:32:53.283Z,101039.16
2023-05-23T11:35:24.913Z,101030.97
2023-05-23T11:37:57.553Z,101035.16
2023-05-23T11:40:30.613Z,101038.53
2023-05-23T11:43:09.861Z,101050.97
2023-05-23T11:45:41.800Z,101060.97
2023-05-23T11:48:16.328Z,101055.66
2023-05-23T11:50:53.562Z,101064.88
2023-05-23T11:53:27.740Z,101056.94
2023-05-23T11:56:01.710Z,101062.97
2023-05-23T11:58:38.412Z,101048.41
2023-05-23T12:01:11.818Z,101054.38
2023-05-23T12:03:50.940Z,101056.63
2023-05-23T12:06:24.679Z,101051.28
2023-05-23T12:08:56.189Z,101065.28
2023-05-23T12:11:31.816Z,101065.69
2023-05-23T12:14:06.422Z,101073.63
2023-05-23T12:16:38.090Z,101077.91
2023-05-23T12:19:11.832Z,101054.03
2023-05-23T12:21:45.745Z,101082.56
2023-05-23T12:24:19.861Z,101088.22
2023-05-23T12:26:51.282Z,101092.72
2023-05-23T12:29:28.781Z,101083.97
2023-05-23T12:32:02.007Z,101081.38
2023-05-23T12:34:33.356Z,101082.16
2023-05-23T12:37:18.925Z,101082.09
2023-05-23T12:39:50.889Z,101062.47
2023-05-23T12:42:22.345Z,101091.97
2023-05-23T12:44:53.982Z,101089.13
2023-05-23T12:47:25.518Z,101101.50
2023-05-23T12:49:57.039Z,101104.66
2023-05-23T12:52:28.394Z,101096.69
2023-05-23T12:54:59.800Z,101101.59
2023-05-23T12:57:31.955Z,101073.38
2023-05-23T13:00:04.652Z,101101.59
2023-05-23T13:02:36.110Z,101105.38
2023-05-23T13:05:08.228Z,101100.50
2023-05-23T13:07:39.640Z,101110.53
2023-05-23T13:10:11.162Z,101099.53
2023-05-23T13:12:42.542Z,101121.34
2023-05-23T13:15:13.984Z,101114.88
2023-05-23T13:17:49.958Z,101128.16
2023-05-23T13:20:22.233Z,101121.72
2023-05-23T13:22:53.666Z,101130.59
2023-05-23T13:25:26.224Z,101130.38
2023-05-23T13:27:57.737Z,101123.22
2023-05-23T13:30:29.241Z,101128.16
2023-05-23T13:33:00.735Z,101137.13
2023-05-23T13:35:32.142Z,101141.25
2023-05-23T13:38:03.601Z,101140.13
2023-05-23T13:40:35.337Z,101148.13
2023-05-23T13:43:07.338Z,101143.97
2023-05-23T13:45:38.800Z,101139.44
2023-05-23T13:48:10.516Z,101137.88
2023-05-23T13:50:43.286Z,101146.16
2023-05-23T13:53:16.780Z,101148.31
2023-05-23T13:55:48.264Z,101147.44
2023-05-23T13:58:19.701Z,101150.00
2023-05-23T14:00:51.055Z,101158.19
2023-05-23T14:03:22.534Z,101151.66
2023-05-23T14:05:54.113Z,101136.28
2023-05-23T14:08:25.842Z,101172.38
2023-05-23T14:10:57.307Z,101153.28
2023-05-23T14:13:28.707Z,101164.72
2023-05-23T14:16:00.137Z,101166.28
2023-05-23T14:18:32.592Z,101167.59
2023-05-23T14:21:04.180Z,101170.53
2023-05-23T14:23:35.627Z,101174.00
2023-05-23T14:26:07.251Z,101177.56
2023-05-23T14:28:38.672Z,101186.53
2023-05-23T14:31:10.112Z,101185.16
2023-05-23T14:33:41.500Z,101195.31
2023-05-23T14:36:12.913Z,101182.88
2023-05-23T14:38:46.151Z,101191.66
2023-05-23T14:41:17.572Z,101185.47
2023-05-23T14:43:49.074Z,101181.22
2023-05-23T14:46:20.628Z,101192.69
2023-05-23T14:48:52.038Z,101192.75
2023-05-23T14:51:41.811Z,101193.00
2023-05-23T14:54:15.917Z,101195.75
2023-05-23T14:56:47.449Z,101204.47
2023-05-23T14:59:18.965Z,101191.31
2023-05-23T15:01:50.416Z,101203.66
2023-05-23T15:04:21.866Z,101203.69
2023-05-23T15:06:53.361Z,101194.25
2023-05-23T15:09:24.772Z,101191.84
2023-05-23T15:11:56.271Z,101199.78
2023-05-23T15:14:29.708Z,101223.91
2023-05-23T15:17:07.760Z,101215.97
2023-05-23T15:19:42.770Z,101212.66
2023-05-23T15:22:33.625Z,101215.31
2023-05-23T15:25:06.782Z,101201.19
2023-05-23T15:27:38.206Z,101214.88
2023-05-23T15:30:09.914Z,101210.56
2023-05-23T15:32:41.413Z,101216.97
2023-05-23T15:35:12.810Z,101218.97
2023-05-23T15:37:45.012Z,101218.19
2023-05-23T15:40:16.424Z,101222.66
2023-05-23T15:42:47.897Z,101215.63
2023-05-23T15:45:19.289Z,101224.91
2023-05-23T15:47:50.999Z,101211.41
2023-05-23T15:50:22.538Z,101227.31
2023-05-23T15:52:53.873Z,101227.16
2023-05-23T15:55:25.318Z,101225.19
2023-05-23T15:57:56.668Z,101226.97
2023-05-23T16:00:28.126Z,101223.84
2023-05-23T16:03:00.564Z,101201.03
2023-05-23T16:05:32.065Z,101232.59
2023-05-23T16:08:03.415Z,101232.09
2023-05-23T16:10:34.905Z,101216.03
2023-05-23T16:13:07.601Z,101230.44
2023-05-23T16:15:39.215Z,101227.56
2023-05-23T16:18:11.192Z,101234.50
2023-05-23T16:20:42.565Z,101231.88
2023-05-23T16:23:14.700Z,101200.94
2023-05-23T16:25:46.320Z,101210.03
2023-05-23T16:28:18.250Z,101235.16
2023-05-23T16:30:50.522Z,101232.69
2023-05-23T16:33:21.875Z,101240.84
2023-05-23T16:35:53.296Z,101227.03
2023-05-23T16:38:24.689Z,101246.34
2023-05-23T16:40:56.076Z,101243.75
2023-05-23T16:43:27.424Z,101249.25
2023-05-23T16:45:58.970Z,101251.91
2023-05-23T16:48:30.695Z,101244.53
2023-05-23T16:51:02.098Z,101250.56
2023-05-23T16:53:33.569Z,101240.16
2023-05-23T16:56:05.139Z,101237.75
2023-05-23T16:58:38.628Z,101256.66
2023-05-23T17:01:10.083Z,101253.16
2023-05-23T17:03:41.718Z,101256.75
2023-05-23T17:06:13.350Z,101254.22
2023-05-23T17:08:44.754Z,101247.28
2023-05-23T17:11:16.271Z,101255.28
2023-05-23T17:13:47.686Z,101238.56
2023-05-23T17:16:20.591Z,101254.31
2023-05-23T17:18:52.210Z,101249.06
2023-05-23T17:21:23.553Z,101260.66
2023-05-23T17:23:54.948Z,101249.22
2023-05-23T17:26:27.161Z,101234.28
2023-05-23T17:28:58.500Z,101265.16
2023-05-23T17:31:30.799Z,101261.63
2023-05-23T17:34:02.432Z,101257.31
2023-05-23T17:36:35.028Z,101258.41
2023-05-23T17:39:06.895Z,101265.66
2023-05-23T17:41:38.268Z,101233.09
2023-05-23T17:44:09.597Z,101262.94
2023-05-23T17:46:41.008Z,101263.00
2023-05-23T17:49:12.430Z,101264.16
2023-05-23T17:51:43.917Z,101261.59
2023-05-23T17:54:15.574Z,101275.91
2023-05-23T17:56:47.700Z,101272.53
2023-05-23T17:59:19.115Z,101276.22
2023-05-23T18:01:50.579Z,101284.19
2023-05-23T18:04:22.984Z,101286.13
2023-05-23T18:06:54.410Z,101283.53
2023-05-23T18:09:25.772Z,101287.06
2023-05-23T18:11:57.345Z,101291.53
2023-05-23T18:14:28.686Z,101289.81
2023-05-23T18:17:00.045Z,101297.03
2023-05-23T18:19:31.474Z,101271.53
2023-05-23T18:22:03.037Z,101290.84
2023-05-23T18:24:34.353Z,101292.66
2023-05-23T18:27:06.009Z,101273.34
2023-05-23T18:29:37.353Z,101297.22
2023-05-23T18:32:08.907Z,101300.00
2023-05-23T18:34:40.856Z,101301.81
2023-05-23T18:37:12.685Z,101300.06
2023-05-23T18:39:44.134Z,101308.97
2023-05-23T18:42:15.616Z,101301.94
2023-05-23T18:44:47.358Z,101302.84
2023-05-23T18:47:18.730Z,101296.69
2023-05-23T18:49:50.368Z,101295.81
2023-05-23T18:52:21.983Z,101297.59
2023-05-23T18:54:54.025Z,101304.75
2023-05-23T18:57:26.057Z,101301.28
2023-05-23T18:59:57.544Z,101285.47
2023-05-23T19:02:28.996Z,101310.16
2023-05-23T19:05:01.440Z,101304.06
2023-05-23T19:07:32.825Z,101308.53
2023-05-23T19:10:04.693Z,101301.47
2023-05-23T19:12:36.282Z,101316.56
2023-05-23T19:15:10.169Z,101317.50
2023-05-23T19:17:41.669Z,101306.94
2023-05-23T19:20:18.136Z,101309.59
2023-05-23T19:22:52.151Z,101311.44
2023-05-23T19:25:24.117Z,101319.41
2023-05-23T19:27:55.581Z,101320.34
2023-05-23T19:30:26.911Z,101313.34
2023-05-23T19:33:01.247Z,101310.78
2023-05-23T19:35:33.775Z,101280.09
2023-05-23T19:38:05.263Z,101307.47
2023-05-23T19:40:36.677Z,101304.91
2023-05-23T19:43:08.392Z,101292.72
2023-05-23T19:45:39.860Z,101314.81
2023-05-23T19:48:11.206Z,101282.28
2023-05-23T19:50:43.576Z,101314.00
2023-05-23T19:53:15.638Z,101311.38
2023-05-23T19:55:46.995Z,101318.47
2023-05-23T19:58:18.515Z,101321.16
2023-05-23T20:00:50.040Z,101313.28
2023-05-23T20:03:22.492Z,101325.66
2023-05-23T20:05:54.008Z,101325.69
2023-05-23T20:08:26.082Z,101327.47
2023-05-23T20:10:59.332Z,101340.72
2023-05-23T20:13:30.740Z,101337.19
2023-05-23T20:16:02.374Z,101344.25
2023-05-23T20:18:34.330Z,101345.16
2023-05-23T20:21:05.735Z,101346.03
2023-05-23T20:23:37.380Z,101339.84
2023-05-23T20:26:09.948Z,101341.63
2023-05-23T20:28:41.378Z,101346.06
2023-05-23T20:31:13.106Z,101348.72
2023-05-23T20:33:44.550Z,101353.13
2023-05-23T20:36:19.512Z,101343.34
2023-05-23T20:38:52.521Z,101342.50
2023-05-23T20:41:24.405Z,101336.34
2023-05-23T20:43:55.721Z,101351.34
2023-05-23T20:46:27.691Z,101345.19
2023-05-23T20:48:59.337Z,101339.94
2023-05-23T20:51:30.778Z,101345.25
2023-05-23T20:54:03.201Z,101341.78
2023-05-23T20:56:34.562Z,101337.38
2023-05-23T20:59:05.954Z,101326.81
2023-05-23T21:01:37.633Z,101343.56
2023-05-23T21:04:09.031Z,101335.63
2023-05-23T21:06:40.376Z,101337.41
2023-05-23T21:09:13.566Z,101347.09
2023-05-23T21:11:44.953Z,101347.09
2023-05-23T21:14:16.268Z,101345.34
2023-05-23T21:16:47.634Z,101354.16
2023-05-23T21:19:18.999Z,101353.28
2023-05-23T21:21:52.993Z,101350.63
2023-05-23T21:24:25.295Z,101358.56
2023-05-23T21:26:56.827Z,101350.63
2023-05-23T21:29:28.571Z,101357.69
2023-05-23T21:31:59.986Z,101354.16
2023-05-23T21:34:31.411Z,101341.81
2023-05-23T21:37:02.789Z,101355.06
2023-05-23T21:39:47.090Z,101351.53
2023-05-23T21:42:24.557Z,101353.31
2023-05-23T21:44:55.872Z,101351.53
2023-05-23T21:47:27.279Z,101348.00
2023-05-23T21:49:58.660Z,101332.13
2023-05-23T21:52:30.613Z,101352.44
2023-05-23T21:55:01.957Z,101355.06
2023-05-23T21:57:33.376Z,101341.84
2023-05-23T22:00:05.368Z,101345.38
2023-05-23T22:02:37.251Z,101348.03
2023-05-23T22:05:08.900Z,101347.13
2023-05-23T22:07:40.255Z,101340.06
2023-05-23T22:10:11.753Z,101337.44
2023-05-23T22:12:43.209Z,101355.06
2023-05-23T22:15:14.619Z,101355.06
2023-05-23T22:17:46.780Z,101331.25
2023-05-23T22:20:18.304Z,101349.78
2023-05-23T22:22:49.830Z,101355.06
2023-05-23T22:25:22.898Z,101369.19
2023-05-23T22:27:54.219Z,101363.00
2023-05-23T22:30:25.642Z,101359.47
2023-05-23T22:32:57.621Z,101351.53
2023-05-23T22:35:29.115Z,101359.47
2023-05-23T22:38:00.652Z,101362.13
2023-05-23T22:40:32.238Z,101362.13
2023-05-23T22:43:07.351Z,101359.47
2023-05-23T22:45:42.481Z,101351.53
2023-05-23T22:48:14.169Z,101355.97
2023-05-23T22:50:45.730Z,101352.44
2023-05-23T22:53:17.033Z,101355.97
2023-05-23T22:55:49.582Z,101354.19
2023-05-23T22:58:20.924Z,101343.59
2023-05-23T23:00:52.305Z,101342.72
2023-05-23T23:03:23.690Z,101354.19
2023-05-23T23:05:55.282Z,101355.06
2023-05-23T23:08:27.247Z,101338.31
2023-05-23T23:10:58.648Z,101365.66
2023-05-23T23:13:30.151Z,101351.53
2023-05-23T23:16:01.482Z,101365.66
2023-05-23T23:18:32.910Z,101368.31
2023-05-23T23:21:04.267Z,101357.72
2023-05-23T23:23:36.577Z,101363.00
2023-05-23T23:26:07.978Z,101357.72
2023-05-23T23:28:39.376Z,101353.31
2023-05-23T23:31:10.852Z,101358.59
2023-05-23T23:33:42.200Z,101355.94
2023-05-23T23:36:13.826Z,101352.41
2023-05-23T23:38:45.265Z,101345.38
2023-05-23T23:41:16.584Z,101351.53
2023-05-23T23:43:47.905Z,101350.66
2023-05-23T23:46:20.743Z,101350.66
2023-05-23T23:48:52.212Z,101351.53
2023-05-23T23:51:23.533Z,101352.41
2023-05-23T23:53:54.942Z,101337.41
2023-05-23T23:56:26.460Z,101354.19
2023-05-23T23:58:57.872Z,101352.41
